Portada
METAR-TAF:

METAR-TAF

Aeroports :

L'Havana, Cuba

latitud: 22-59N, longitud: 082-24W, altitud: 59 m

Observació

L'informe es va fer fa 1 hora i 11 minuts, a les 13:55 UTC
Vent 3 kt del Sud-Oest
Temperatura 24°C
Humitat 89%
Pressió 1018 hPa
Visibilitat: 9000 m

METAR: MUHA 051355Z 22003KT 9000 NSC 24/22 Q1018

Hora: 10:06 (15:06 UTC)

Pronòstic

L'informe es va fer fa 4 hores i 6 minuts, a les 11:00 UTC
Pronòstic vàlid del 05 a les 12 UTC al 06 a les 12 UTC
Vent 3 kt amb direcció variable
Visibilitat: 9000 m
Núvols disperses a una alçada de 3000 ft
Evolucionant progressivament
l' 05 a les 17 UTC al 05 a les 19 UTC
Vent 10 kt del Est/Sud-Est
Evolucionant progressivament
l' 06 a les 01 UTC al 06 a les 03 UTC
Vent 3 kt amb direcció variable

TAF: MUHA 051100Z 0512/0612 VRB03KT 9000 SCT030 BECMG 0517/0519 11010KT BECMG 0601/0603 VRB03KT

Observacions i pronòstics meteorològics de més de 4000 aeroports (METAR i TAF).

Les estacions disponibles són els punts grocs i vermells al mapa.

Posi el ratolí al punt desitjat per veure el nom de l'estació.

Feu clic per veure les observacions i els pronòstics meteorològics.

Per canviar el mapa: feu clic els botons verds amb una creu de color negre per apropar; al botó verd amb un guió per allunyar la imatge; o en les fletxes verdes per a mapes adjacents.


METAR-TAF: